createdAt,value
2019-06-10T00:01:57.915Z,15.90
2019-06-10T00:04:30.880Z,15.90
2019-06-10T00:07:03.872Z,15.90
2019-06-10T00:09:35.124Z,15.90
2019-06-10T00:12:07.710Z,15.80
2019-06-10T00:14:41.787Z,15.80
2019-06-10T00:17:12.429Z,15.80
2019-06-10T00:19:43.646Z,15.90
2019-06-10T00:22:14.629Z,15.80
2019-06-10T00:24:45.669Z,15.80
2019-06-10T00:27:16.932Z,15.70
2019-06-10T00:29:48.020Z,15.70
2019-06-10T00:32:21.545Z,15.70
2019-06-10T00:34:51.914Z,15.80
2019-06-10T00:37:22.563Z,15.70
2019-06-10T00:39:53.210Z,15.70
2019-06-10T00:42:23.813Z,15.70
2019-06-10T00:44:54.453Z,15.60
2019-06-10T00:47:25.109Z,15.70
2019-06-10T00:49:55.737Z,15.60
2019-06-10T00:52:26.388Z,15.60
2019-06-10T00:54:57.114Z,15.70
2019-06-10T00:57:27.821Z,15.70
2019-06-10T01:00:01.708Z,15.70
2019-06-10T01:02:32.580Z,15.70
2019-06-10T01:05:03.236Z,15.60
2019-06-10T01:07:33.869Z,15.60
2019-06-10T01:10:05.084Z,15.60
2019-06-10T01:12:35.744Z,15.60
2019-06-10T01:15:07.411Z,15.60
2019-06-10T01:17:38.176Z,15.70
2019-06-10T01:20:10.707Z,15.70
2019-06-10T01:22:41.755Z,15.70
2019-06-10T01:25:14.963Z,15.70
2019-06-10T01:27:45.224Z,15.70
2019-06-10T01:30:20.573Z,15.60
2019-06-10T01:32:50.520Z,15.50
2019-06-10T01:35:21.108Z,15.50
2019-06-10T01:37:52.082Z,15.50
2019-06-10T01:40:22.684Z,15.40
2019-06-10T01:42:53.412Z,15.40
2019-06-10T01:45:24.036Z,15.50
2019-06-10T01:47:54.637Z,15.40
2019-06-10T01:50:25.248Z,15.30
2019-06-10T01:52:55.884Z,15.30
2019-06-10T01:55:26.484Z,15.20
2019-06-10T01:57:57.092Z,15.20
2019-06-10T02:00:35.854Z,15.30
2019-06-10T02:03:06.454Z,15.30
2019-06-10T02:05:37.068Z,15.30
2019-06-10T02:08:08.789Z,15.20
2019-06-10T02:10:41.566Z,15.20
2019-06-10T02:13:32.456Z,15.30
2019-06-10T02:16:03.808Z,15.20
2019-06-10T02:18:34.385Z,15.20
2019-06-10T02:21:04.995Z,15.20
2019-06-10T02:23:35.617Z,15.20
2019-06-10T02:26:06.215Z,15.10
2019-06-10T02:28:36.855Z,15.00
2019-06-10T02:31:07.499Z,14.90
2019-06-10T02:33:38.122Z,14.80
2019-06-10T02:36:08.695Z,14.90
2019-06-10T02:38:39.910Z,14.90
2019-06-10T02:41:17.469Z,14.90
2019-06-10T02:43:44.242Z,14.90
2019-06-10T02:46:17.565Z,14.90
2019-06-10T02:48:47.236Z,14.80
2019-06-10T02:51:21.844Z,14.90
2019-06-10T02:53:53.550Z,14.90
2019-06-10T02:56:29.924Z,14.90
2019-06-10T02:58:54.837Z,14.90
2019-06-10T03:01:32.163Z,14.90
2019-06-10T03:03:57.738Z,14.70
2019-06-10T03:06:34.663Z,14.70
2019-06-10T03:09:03.724Z,14.70
2019-06-10T03:11:36.928Z,14.70
2019-06-10T03:14:05.541Z,14.70
2019-06-10T03:16:57.742Z,14.70
2019-06-10T03:19:41.884Z,14.70
2019-06-10T03:22:02.737Z,14.60
2019-06-10T03:24:33.050Z,14.70
2019-06-10T03:27:03.757Z,14.60
2019-06-10T03:29:34.422Z,14.60
2019-06-10T03:32:05.714Z,14.60
2019-06-10T03:34:41.983Z,14.70
2019-06-10T03:37:08.752Z,14.60
2019-06-10T03:39:39.378Z,14.70
2019-06-10T03:42:12.462Z,14.70
2019-06-10T03:44:43.062Z,14.60
2019-06-10T03:47:13.735Z,14.60
2019-06-10T03:49:52.408Z,14.70
2019-06-10T03:52:17.122Z,14.70
2019-06-10T03:54:47.796Z,14.60
2019-06-10T03:57:19.244Z,14.60
2019-06-10T03:59:49.992Z,14.70
2019-06-10T04:02:23.618Z,14.70
2019-06-10T04:04:53.330Z,14.60
2019-06-10T04:07:27.740Z,14.60
2019-06-10T04:09:56.238Z,14.50
2019-06-10T04:12:27.827Z,14.50
2019-06-10T04:14:59.251Z,14.60
2019-06-10T04:17:29.880Z,14.60
2019-06-10T04:20:09.184Z,14.70
2019-06-10T04:22:33.309Z,14.70
2019-06-10T04:25:03.941Z,14.80
2019-06-10T04:27:34.548Z,14.80
2019-06-10T04:30:05.733Z,14.80
2019-06-10T04:32:36.830Z,14.80
2019-06-10T04:35:07.933Z,14.80
2019-06-10T04:37:38.566Z,14.80
2019-06-10T04:40:09.776Z,14.90
2019-06-10T04:42:40.361Z,14.90
2019-06-10T04:45:12.283Z,15.00
2019-06-10T04:47:43.256Z,15.00
2019-06-10T04:50:25.666Z,15.10
2019-06-10T04:52:47.860Z,15.10
2019-06-10T04:55:18.830Z,15.10
2019-06-10T04:57:51.992Z,15.10
2019-06-10T05:00:25.463Z,15.10
2019-06-10T05:02:55.698Z,15.00
2019-06-10T05:05:27.258Z,15.00
2019-06-10T05:07:58.640Z,15.10
2019-06-10T05:10:29.914Z,15.30
2019-06-10T05:13:02.990Z,15.20
2019-06-10T05:15:34.951Z,15.20
2019-06-10T05:18:05.272Z,15.30
2019-06-10T05:20:51.043Z,15.30
2019-06-10T05:23:08.173Z,15.30
2019-06-10T05:25:38.763Z,15.40
2019-06-10T05:28:09.372Z,15.40
2019-06-10T05:30:42.481Z,15.40
2019-06-10T05:33:13.465Z,15.40
2019-06-10T05:35:44.236Z,15.40
2019-06-10T05:38:14.893Z,15.50
2019-06-10T05:40:45.533Z,15.50
2019-06-10T05:43:16.332Z,15.50
2019-06-10T05:45:46.925Z,15.50
2019-06-10T05:48:17.591Z,15.40
2019-06-10T05:51:02.029Z,15.50
2019-06-10T05:53:23.098Z,15.70
2019-06-10T05:55:53.062Z,15.80
2019-06-10T05:58:25.045Z,15.70
2019-06-10T06:00:56.287Z,15.70
2019-06-10T06:03:27.792Z,15.60
2019-06-10T06:05:58.491Z,15.70
2019-06-10T06:08:29.163Z,15.50
2019-06-10T06:10:59.820Z,15.40
2019-06-10T06:13:32.699Z,15.50
2019-06-10T06:16:03.465Z,15.60
2019-06-10T06:18:36.335Z,15.80
2019-06-10T06:21:22.706Z,15.70
2019-06-10T06:23:40.585Z,15.70
2019-06-10T06:26:16.270Z,15.70
2019-06-10T06:28:43.525Z,15.70
2019-06-10T06:31:14.136Z,15.80
2019-06-10T06:33:44.799Z,15.80
2019-06-10T06:36:15.426Z,15.80
2019-06-10T06:38:46.034Z,15.90
2019-06-10T06:41:16.644Z,16.00
2019-06-10T06:43:47.365Z,16.10
2019-06-10T06:46:18.097Z,16.10
2019-06-10T06:48:48.705Z,16.20
2019-06-10T06:51:36.486Z,16.30
2019-06-10T06:53:56.298Z,16.50
2019-06-10T06:56:25.788Z,16.50
2019-06-10T06:58:56.376Z,16.60
2019-06-10T07:01:26.992Z,16.70
2019-06-10T07:03:57.626Z,16.70
2019-06-10T07:06:29.867Z,16.60
2019-06-10T07:09:07.716Z,16.60
2019-06-10T07:11:40.045Z,16.50
2019-06-10T07:14:13.287Z,16.70
2019-06-10T07:16:46.075Z,16.80
2019-06-10T07:19:15.633Z,16.80
2019-06-10T07:22:07.500Z,16.80
2019-06-10T07:24:18.622Z,16.80
2019-06-10T07:26:52.255Z,16.90
2019-06-10T07:29:22.619Z,17.10
2019-06-10T07:31:53.841Z,17.10
2019-06-10T07:34:25.294Z,17.10
2019-06-10T07:36:55.938Z,17.10
2019-06-10T07:39:26.606Z,17.20
2019-06-10T07:41:57.247Z,17.20
2019-06-10T07:44:28.430Z,17.30
2019-06-10T07:46:59.399Z,17.40
2019-06-10T07:49:32.165Z,17.40
2019-06-10T07:52:15.001Z,17.50
2019-06-10T07:54:37.239Z,17.70
2019-06-10T07:57:09.097Z,17.50
2019-06-10T07:59:39.775Z,17.50
2019-06-10T08:02:12.414Z,17.70
2019-06-10T08:04:45.775Z,17.80
2019-06-10T08:07:15.292Z,17.90
2019-06-10T08:09:47.439Z,17.90
2019-06-10T08:12:44.767Z,17.90
2019-06-10T08:15:16.012Z,17.90
2019-06-10T08:17:48.252Z,17.80
2019-06-10T08:20:49.343Z,17.90
2019-06-10T08:23:23.691Z,17.90
2019-06-10T08:25:57.919Z,18.00
2019-06-10T08:28:35.536Z,17.80
2019-06-10T08:31:09.137Z,17.80
2019-06-10T08:33:47.328Z,17.90
2019-06-10T08:36:18.064Z,18.00
2019-06-10T08:38:52.453Z,18.00
2019-06-10T08:41:23.209Z,17.80
2019-06-10T08:43:57.300Z,17.70
2019-06-10T08:46:27.896Z,17.50
2019-06-10T08:48:58.573Z,17.60
2019-06-10T08:51:32.313Z,17.60
2019-06-10T08:54:02.580Z,17.70
2019-06-10T08:56:33.325Z,17.70
2019-06-10T08:59:03.969Z,17.70
2019-06-10T09:01:34.606Z,17.70
2019-06-10T09:04:05.423Z,17.60
2019-06-10T09:06:36.071Z,17.50
2019-06-10T09:09:08.879Z,17.40
2019-06-10T09:11:43.158Z,17.40
2019-06-10T09:14:12.745Z,17.30
2019-06-10T09:16:47.018Z,17.30
2019-06-10T09:19:16.357Z,17.30
2019-06-10T09:21:51.264Z,17.30
2019-06-10T09:24:22.176Z,17.50
2019-06-10T09:26:55.019Z,17.50
2019-06-10T09:29:25.621Z,17.60
2019-06-10T09:31:56.908Z,17.60
2019-06-10T09:34:27.558Z,17.80
2019-06-10T09:36:58.798Z,17.80
2019-06-10T09:39:29.386Z,17.80
2019-06-10T09:42:05.291Z,17.90
2019-06-10T09:44:33.388Z,17.80
2019-06-10T09:47:06.456Z,17.70
2019-06-10T09:49:37.625Z,17.90
2019-06-10T09:52:08.499Z,18.10
2019-06-10T09:54:41.626Z,18.50
2019-06-10T09:57:12.691Z,19.20
2019-06-10T09:59:47.951Z,19.50
2019-06-10T10:02:16.360Z,20.20
2019-06-10T10:04:51.206Z,20.50
2019-06-10T10:07:22.523Z,20.90
2019-06-10T10:09:57.120Z,21.10
2019-06-10T10:12:27.416Z,21.20
2019-06-10T10:14:58.606Z,21.20
2019-06-10T10:17:29.823Z,20.60
2019-06-10T10:20:03.214Z,20.70
2019-06-10T10:22:34.206Z,21.00
2019-06-10T10:25:05.761Z,21.00
2019-06-10T10:27:36.917Z,20.90
2019-06-10T10:30:08.960Z,21.50
2019-06-10T10:32:43.771Z,22.00
2019-06-10T10:35:13.270Z,21.90
2019-06-10T10:37:44.631Z,21.30
2019-06-10T10:40:15.849Z,21.70
2019-06-10T10:42:52.209Z,21.90
2019-06-10T10:45:22.694Z,22.20
2019-06-10T10:47:56.739Z,22.10
2019-06-10T10:50:27.637Z,21.90
2019-06-10T10:52:58.942Z,21.90
2019-06-10T10:55:30.172Z,22.20
2019-06-10T10:58:14.008Z,21.70
2019-06-10T11:00:47.834Z,21.70
2019-06-10T11:03:19.632Z,21.20
2019-06-10T11:05:55.056Z,21.00
2019-06-10T11:08:23.730Z,21.10
2019-06-10T11:10:59.471Z,21.00
2019-06-10T11:13:29.341Z,21.10
2019-06-10T11:16:03.322Z,21.60
2019-06-10T11:18:34.104Z,21.80
2019-06-10T11:21:05.527Z,22.10
2019-06-10T11:23:36.867Z,22.40
2019-06-10T11:26:08.031Z,22.50
2019-06-10T11:28:39.220Z,22.20
2019-06-10T11:31:10.500Z,21.80
2019-06-10T11:33:43.564Z,21.90
2019-06-10T11:36:15.099Z,22.50
2019-06-10T11:38:46.382Z,22.10
2019-06-10T11:41:17.684Z,22.30
2019-06-10T11:43:48.837Z,22.60
2019-06-10T11:46:20.155Z,22.50
2019-06-10T11:48:54.037Z,22.10
2019-06-10T11:51:24.344Z,21.90
2019-06-10T11:53:57.699Z,22.30
2019-06-10T11:56:29.317Z,22.40
2019-06-10T11:59:09.001Z,22.20
2019-06-10T12:01:33.489Z,22.20
2019-06-10T12:04:04.703Z,22.20
2019-06-10T12:06:36.179Z,21.70
2019-06-10T12:09:09.389Z,21.80
2019-06-10T12:11:43.464Z,21.90
2019-06-10T12:14:13.545Z,21.80
2019-06-10T12:17:17.458Z,22.00
2019-06-10T12:19:17.646Z,22.10
2019-06-10T12:21:49.774Z,22.10
2019-06-10T12:24:23.074Z,21.90
2019-06-10T12:26:57.051Z,21.80
2019-06-10T12:29:26.966Z,21.50
2019-06-10T12:32:01.586Z,21.40
2019-06-10T12:34:33.262Z,21.20
2019-06-10T12:37:12.030Z,21.20
2019-06-10T12:39:37.244Z,21.00
2019-06-10T12:42:11.050Z,21.00
2019-06-10T12:44:42.893Z,21.10
2019-06-10T12:47:14.183Z,21.00
2019-06-10T12:49:45.393Z,20.90
2019-06-10T12:52:16.605Z,20.70
2019-06-10T12:54:47.808Z,20.80
2019-06-10T12:57:19.019Z,20.80
2019-06-10T12:59:52.127Z,20.80
2019-06-10T13:02:30.506Z,20.80
2019-06-10T13:04:57.562Z,20.60
2019-06-10T13:07:32.366Z,20.50
2019-06-10T13:10:04.007Z,20.40
2019-06-10T13:12:35.467Z,20.40
2019-06-10T13:15:08.891Z,20.10
2019-06-10T13:17:43.768Z,20.10
2019-06-10T13:20:19.616Z,19.80
2019-06-10T13:22:50.833Z,19.40
2019-06-10T13:25:22.259Z,19.30
2019-06-10T13:27:53.680Z,19.20
2019-06-10T13:30:26.103Z,19.10
2019-06-10T13:33:00.046Z,19.10
2019-06-10T13:35:32.243Z,19.00
2019-06-10T13:38:05.692Z,19.00
2019-06-10T13:40:37.149Z,19.10
2019-06-10T13:43:08.737Z,19.20
2019-06-10T13:45:42.942Z,19.20
2019-06-10T13:48:14.957Z,19.10
2019-06-10T13:50:53.284Z,19.00
2019-06-10T13:53:46.274Z,19.10
2019-06-10T13:56:43.246Z,19.10
2019-06-10T13:59:07.458Z,19.10
2019-06-10T14:01:39.800Z,19.00
2019-06-10T14:04:25.830Z,18.90
2019-06-10T14:07:17.152Z,18.80
2019-06-10T14:09:48.565Z,18.60
2019-06-10T14:12:27.331Z,18.50
2019-06-10T14:14:59.055Z,18.50
2019-06-10T14:17:32.755Z,18.50
2019-06-10T14:20:06.401Z,18.40
2019-06-10T14:22:38.406Z,18.50
2019-06-10T14:25:12.342Z,18.40
2019-06-10T14:27:44.986Z,18.30
2019-06-10T14:30:16.860Z,18.30
2019-06-10T14:32:48.931Z,18.30
2019-06-10T14:35:22.578Z,18.30
2019-06-10T14:37:56.790Z,18.10
2019-06-10T14:40:27.456Z,18.00
2019-06-10T14:42:58.630Z,18.00
2019-06-10T14:45:32.512Z,17.80
2019-06-10T14:48:03.024Z,17.60
2019-06-10T14:50:33.700Z,17.60
2019-06-10T14:53:11.718Z,17.60
2019-06-10T14:55:44.724Z,17.60
2019-06-10T14:58:19.255Z,17.50
2019-06-10T15:00:49.050Z,17.40
2019-06-10T15:03:20.171Z,17.40
2019-06-10T15:05:52.881Z,17.40
2019-06-10T15:08:23.468Z,17.40
2019-06-10T15:10:54.667Z,17.30
2019-06-10T15:13:25.905Z,17.20
2019-06-10T15:15:56.564Z,17.20
2019-06-10T15:18:27.185Z,17.20
2019-06-10T15:20:58.043Z,17.20
2019-06-10T15:23:28.702Z,17.20
2019-06-10T15:25:59.377Z,17.20
2019-06-10T15:28:30.675Z,17.20
2019-06-10T15:31:03.039Z,17.30
2019-06-10T15:33:33.827Z,17.30
2019-06-10T15:36:04.480Z,17.40
2019-06-10T15:38:35.128Z,17.30
2019-06-10T15:41:05.705Z,17.30
2019-06-10T15:43:36.938Z,17.20
2019-06-10T15:46:07.620Z,17.30
2019-06-10T15:48:38.205Z,17.20
2019-06-10T15:51:08.909Z,17.20
2019-06-10T15:53:39.572Z,17.30
2019-06-10T15:56:18.202Z,17.30
2019-06-10T15:58:43.029Z,17.30
2019-06-10T16:01:17.066Z,17.30
2019-06-10T16:03:46.695Z,17.30
2019-06-10T16:06:18.121Z,17.30
2019-06-10T16:08:48.867Z,17.30
2019-06-10T16:11:20.564Z,17.20
2019-06-10T16:13:53.346Z,17.10
2019-06-10T16:16:24.729Z,17.10
2019-06-10T16:18:55.350Z,17.00
2019-06-10T16:21:26.029Z,17.00
2019-06-10T16:23:57.254Z,17.00
2019-06-10T16:26:27.932Z,17.10
2019-06-10T16:28:58.938Z,17.10
2019-06-10T16:31:30.356Z,17.20
2019-06-10T16:34:04.147Z,17.40
2019-06-10T16:36:33.908Z,17.40
2019-06-10T16:39:05.849Z,17.40
2019-06-10T16:41:37.224Z,17.50
2019-06-10T16:44:07.887Z,17.50
2019-06-10T16:46:38.707Z,17.40
2019-06-10T16:49:12.543Z,17.40
2019-06-10T16:51:42.885Z,17.50
2019-06-10T16:54:13.813Z,17.50
2019-06-10T16:56:44.445Z,17.40
2019-06-10T16:59:15.643Z,17.40
2019-06-10T17:01:46.284Z,17.40
2019-06-10T17:04:17.346Z,17.40
2019-06-10T17:06:48.034Z,17.40
2019-06-10T17:09:18.667Z,17.30
2019-06-10T17:11:49.416Z,17.30
2019-06-10T17:14:20.129Z,17.40
2019-06-10T17:16:52.795Z,17.40
2019-06-10T17:19:27.400Z,17.30
2019-06-10T17:21:57.440Z,17.30
2019-06-10T17:24:29.466Z,17.30
2019-06-10T17:27:02.652Z,17.30
2019-06-10T17:29:34.092Z,17.30
2019-06-10T17:32:04.769Z,17.20
2019-06-10T17:34:35.980Z,17.20
2019-06-10T17:37:06.683Z,17.20
2019-06-10T17:39:37.302Z,17.20
2019-06-10T17:42:08.336Z,17.30
2019-06-10T17:44:38.963Z,17.30
2019-06-10T17:47:09.610Z,17.30
2019-06-10T17:49:41.937Z,17.30
2019-06-10T17:52:13.364Z,17.20
2019-06-10T17:54:43.998Z,17.20
2019-06-10T17:57:15.192Z,17.10
2019-06-10T17:59:46.429Z,17.10
2019-06-10T18:02:17.139Z,17.10
2019-06-10T18:04:48.391Z,17.00
2019-06-10T18:07:19.123Z,17.00
2019-06-10T18:09:52.841Z,17.10
2019-06-10T18:12:23.858Z,17.00
2019-06-10T18:14:54.525Z,17.00
2019-06-10T18:17:27.128Z,17.00
2019-06-10T18:19:58.214Z,16.90
2019-06-10T18:22:30.595Z,16.80
2019-06-10T18:25:03.067Z,16.90
2019-06-10T18:27:35.515Z,16.90
2019-06-10T18:30:11.487Z,16.90
2019-06-10T18:32:42.818Z,16.90
2019-06-10T18:35:14.316Z,17.00
2019-06-10T18:37:45.621Z,17.10
2019-06-10T18:40:17.150Z,17.00
2019-06-10T18:42:47.805Z,17.00
2019-06-10T18:45:22.239Z,17.00
2019-06-10T18:47:53.063Z,17.00
2019-06-10T18:50:26.080Z,16.90
2019-06-10T18:52:58.873Z,16.90
2019-06-10T18:55:30.392Z,16.90
2019-06-10T18:58:02.531Z,16.80
2019-06-10T19:00:52.137Z,16.80
2019-06-10T19:03:12.501Z,16.80
2019-06-10T19:05:39.427Z,16.80
2019-06-10T19:08:10.756Z,16.80
2019-06-10T19:10:43.212Z,16.80
2019-06-10T19:13:14.472Z,16.80
2019-06-10T19:15:45.182Z,16.80
2019-06-10T19:18:15.943Z,16.80
2019-06-10T19:20:47.221Z,16.80
2019-06-10T19:23:17.889Z,16.70
2019-06-10T19:25:48.660Z,16.70
2019-06-10T19:28:19.384Z,16.70
2019-06-10T19:30:50.181Z,16.70
2019-06-10T19:33:23.232Z,16.70
2019-06-10T19:35:53.855Z,16.70
2019-06-10T19:38:24.568Z,16.70
2019-06-10T19:40:55.230Z,16.60
2019-06-10T19:43:26.498Z,16.60
2019-06-10T19:45:57.830Z,16.60
2019-06-10T19:48:28.573Z,16.60
2019-06-10T19:50:59.299Z,16.70
2019-06-10T19:53:32.591Z,16.70
2019-06-10T19:56:02.763Z,16.60
2019-06-10T19:58:34.237Z,16.70
2019-06-10T20:01:05.780Z,16.70
2019-06-10T20:03:37.662Z,16.60
2019-06-10T20:06:08.456Z,16.60
2019-06-10T20:08:40.034Z,16.60
2019-06-10T20:11:12.363Z,16.60
2019-06-10T20:13:43.713Z,16.50
2019-06-10T20:16:15.529Z,16.50
2019-06-10T20:18:48.213Z,16.50
2019-06-10T20:21:18.580Z,16.50
2019-06-10T20:23:49.798Z,16.50
2019-06-10T20:26:22.427Z,16.50
2019-06-10T20:28:55.343Z,16.50
2019-06-10T20:31:25.248Z,16.50
2019-06-10T20:33:55.891Z,16.50
2019-06-10T20:36:27.472Z,16.40
2019-06-10T20:38:58.259Z,16.40
2019-06-10T20:41:29.603Z,16.50
2019-06-10T20:44:02.675Z,16.40
2019-06-10T20:46:33.321Z,16.40
2019-06-10T20:49:04.053Z,16.30
2019-06-10T20:51:48.825Z,16.30
2019-06-10T20:54:07.678Z,16.20
2019-06-10T20:56:38.953Z,16.10
2019-06-10T20:59:09.600Z,16.10
2019-06-10T21:01:43.294Z,16.10
2019-06-10T21:04:13.271Z,16.10
2019-06-10T21:06:45.708Z,16.10
2019-06-10T21:09:16.431Z,16.00
2019-06-10T21:11:48.599Z,16.00
2019-06-10T21:14:19.566Z,16.00
2019-06-10T21:16:51.109Z,16.00
2019-06-10T21:19:23.494Z,16.00
2019-06-10T21:21:55.042Z,16.00
2019-06-10T21:24:25.839Z,16.00
2019-06-10T21:26:56.529Z,16.00
2019-06-10T21:29:27.263Z,16.00
2019-06-10T21:31:57.889Z,15.90
2019-06-10T21:34:28.536Z,15.90
2019-06-10T21:36:59.185Z,15.90
2019-06-10T21:39:32.120Z,15.90
2019-06-10T21:42:02.431Z,15.90
2019-06-10T21:44:33.253Z,15.90
2019-06-10T21:47:03.891Z,15.90
2019-06-10T21:49:34.515Z,15.80
2019-06-10T21:52:05.319Z,15.80
2019-06-10T21:54:35.962Z,15.70
2019-06-10T21:57:06.596Z,15.70
2019-06-10T21:59:37.264Z,15.70
2019-06-10T22:02:07.998Z,15.60
2019-06-10T22:04:38.671Z,15.60
2019-06-10T22:07:09.298Z,15.50
2019-06-10T22:09:42.380Z,15.60
2019-06-10T22:12:12.565Z,15.50
2019-06-10T22:14:44.166Z,15.50
2019-06-10T22:17:14.780Z,15.40
2019-06-10T22:19:46.547Z,15.40
2019-06-10T22:22:17.295Z,15.30
2019-06-10T22:24:48.818Z,15.40
2019-06-10T22:27:19.522Z,15.30
2019-06-10T22:29:51.252Z,15.40
2019-06-10T22:32:22.602Z,15.40
2019-06-10T22:34:55.349Z,15.40
2019-06-10T22:37:25.556Z,15.40
2019-06-10T22:39:57.857Z,15.30
2019-06-10T22:42:28.576Z,15.30
2019-06-10T22:45:00.240Z,15.20
2019-06-10T22:47:32.401Z,15.20
2019-06-10T22:50:07.046Z,15.30
2019-06-10T22:52:35.430Z,15.30
2019-06-10T22:55:06.061Z,15.30
2019-06-10T22:57:37.398Z,15.30
2019-06-10T23:00:12.950Z,15.20
2019-06-10T23:02:43.881Z,15.10
2019-06-10T23:05:17.202Z,15.10
2019-06-10T23:07:48.243Z,15.10
2019-06-10T23:10:19.355Z,15.10
2019-06-10T23:12:51.286Z,15.10
2019-06-10T23:15:23.496Z,15.10
2019-06-10T23:17:56.765Z,15.10
2019-06-10T23:20:26.635Z,15.20
2019-06-10T23:22:58.730Z,15.10
2019-06-10T23:25:29.579Z,15.20
2019-06-10T23:28:00.891Z,15.20
2019-06-10T23:30:32.967Z,15.20
2019-06-10T23:33:03.690Z,15.20
2019-06-10T23:35:34.290Z,15.10
2019-06-10T23:38:05.340Z,15.10
2019-06-10T23:40:35.987Z,15.00
2019-06-10T23:43:06.575Z,14.80
2019-06-10T23:45:37.173Z,14.80
2019-06-10T23:48:07.963Z,14.80
2019-06-10T23:50:38.601Z,14.70
2019-06-10T23:53:09.208Z,14.70
2019-06-10T23:55:39.777Z,14.70
2019-06-10T23:58:12.639Z,14.70
